Joshua Tree National Park, CA

5:16 PM PDT on October 21, 2014 (GMT -0700)
Rural | Change Station
CLOSE
Current Station
Personal Weather Station
Location: Twentynine Palms, CA
Elevation: 2133 ft
Nearby Weather Stations

Elev 2133 ft 34.16 °N, 116.10 °W | Updated 1 second ago

Mostly Cloudy
Mostly Cloudy
82.4 °F
Feels Like 80 °F
N
0.0
Wind Variable Wind from North
Gusts 4.0 mph

Today
High -- | Low -- °F
--% Chance of Precip.
Yesterday
High -- | Low -- °F
Precip. -- in
6:54 AM 6:02 PM
Waning Crescent, 4% visible
Pressure 29.79 in
Visibility 10.0 miles
Clouds Mostly Cloudy 13000 ft
Heat Index 80 °F
Dew Point 40 °F
Humidity 22%
Rainfall 0.00 in
Snow Depth Not available.
UV 0 out of 12
Pollen 3.40 out of 12
Ozone Good
Flu Activity Sporadic
METAR KNXP 212356Z 00000KT 10SM BKN130 28/M01 A2988 RMK AO2 SLP086 T02831006 10294 20228 56015

More Conditions Fewer Conditions

Pressure 29.79 in
Visibility 10.0 miles
Clouds Mostly Cloudy 13000 ft
Heat Index 80 °F
Dew Point 40 °F
Humidity 22%
Rainfall 0.00 in
Snow Depth Not available.
UV 0 out of 12
Pollen 3.40 out of 12
Ozone Good
Flu Activity Sporadic
METAR KNXP 212356Z 00000KT 10SM BKN130 28/M01 A2988 RMK AO2 SLP086 T02831006 10294 20228 56015

More Conditions Fewer Conditions

10-Day Weather Forecast

Almanac

Astronomy

Oct. 21, 2014 Rise Set
Actual Time 6:54 AM PDT 6:02 PM PDT
Civil Twilight 6:28 AM PDT 6:28 PM PDT
Nautical Twilight 5:59 AM PDT 6:57 PM PDT
Astronomical Twilight 5:30 AM PDT 7:26 PM PDT
Moon 4:48 AM PDT (10/21) 4:54 PM PDT (10/21)
Length of Visible Light 11h 59m
Length of Day
11h 08m
Tomorrow will be 1m 59s shorter.
Waning Crescent, 4% of the Moon is Illuminated
Today
Waning Crescent
Oct 23
New
Oct 30
First Quarter
Nov 6
Full
Nov 14
Last Quarter

Today's Extremes

State Highs State Lows

Community

WunderPhotos

Upload Photos

1,763,826 photos uploaded!

Nearby

Air Quality

  Air Quality AQ Index Pollutant
Yesterday Good
OZONE
Yesterday Good
PM10
Current Good
OZONE
Wednesday Good
OZONE
Wednesday Good
PM10
Wednesday Good
CO
Wednesday Good
NO2

Snow Depth

Station Depth Elevation
Leavitt Meadows 0 in 7200 ft
Echo Peak 0 in 7800 ft
Ward Creek #3 1 in 6750 ft
Adin Mountain 1 in 6200 ft

Earthquake Activity

City Distance Mag. Time & Date
No recent earthquake activity has been reported nearby.
Minimum magnitude displayed is 2.5.

Coastal Water Temperatures

Place Temperature
No Stations Reporting

Nearby Weather Stations